sensor_id;sensor_type;location;lat;lon;timestamp;pressure;altitude;pressure_sealevel;temperature;humidity
51123;BME280;37162;41.724;13.346;2023-02-22T00:00:22;96983.69;;;16.45;60.83
51123;BME280;37162;41.724;13.346;2023-02-22T00:02:55;96985.56;;;16.45;60.98
51123;BME280;37162;41.724;13.346;2023-02-22T00:05:28;96963.00;;;16.34;60.86
51123;BME280;37162;41.724;13.346;2023-02-22T00:07:56;96981.69;;;16.41;60.96
51123;BME280;37162;41.724;13.346;2023-02-22T00:10:22;96977.81;;;16.36;60.64
51123;BME280;37162;41.724;13.346;2023-02-22T00:12:52;96988.22;;;16.45;61.05
51123;BME280;37162;41.724;13.346;2023-02-22T00:15:20;96993.59;;;16.45;61.13
51123;BME280;37162;41.724;13.346;2023-02-22T00:17:46;96986.00;;;16.42;61.26
51123;BME280;37162;41.724;13.346;2023-02-22T00:20:13;96988.22;;;16.45;61.18
51123;BME280;37162;41.724;13.346;2023-02-22T00:22:43;96981.25;;;16.44;61.04
51123;BME280;37162;41.724;13.346;2023-02-22T00:25:12;96988.47;;;16.43;60.92
51123;BME280;37162;41.724;13.346;2023-02-22T00:27:37;96972.44;;;16.36;60.98
51123;BME280;37162;41.724;13.346;2023-02-22T00:30:06;96973.88;;;16.39;60.86
51123;BME280;37162;41.724;13.346;2023-02-22T00:32:33;96969.19;;;16.34;60.78
51123;BME280;37162;41.724;13.346;2023-02-22T00:34:59;96975.88;;;16.44;60.87
51123;BME280;37162;41.724;13.346;2023-02-22T00:37:24;96969.56;;;16.38;60.91
51123;BME280;37162;41.724;13.346;2023-02-22T00:39:50;96976.94;;;16.43;60.88
51123;BME280;37162;41.724;13.346;2023-02-22T00:42:17;96976.94;;;16.43;61.01
51123;BME280;37162;41.724;13.346;2023-02-22T00:44:43;96973.44;;;16.42;60.94
51123;BME280;37162;41.724;13.346;2023-02-22T00:47:09;96968.88;;;16.43;61.00
51123;BME280;37162;41.724;13.346;2023-02-22T00:49:35;96968.88;;;16.43;60.94
51123;BME280;37162;41.724;13.346;2023-02-22T00:52:01;96965.00;;;16.39;60.98
51123;BME280;37162;41.724;13.346;2023-02-22T00:54:26;96971.56;;;16.43;60.94
51123;BME280;37162;41.724;13.346;2023-02-22T00:56:52;96955.78;;;16.34;60.77
51123;BME280;37162;41.724;13.346;2023-02-22T00:59:17;96967.22;;;16.42;60.88
51123;BME280;37162;41.724;13.346;2023-02-22T01:01:43;96963.97;;;16.40;61.09
51123;BME280;37162;41.724;13.346;2023-02-22T01:04:08;96946.69;;;16.35;61.03
51123;BME280;37162;41.724;13.346;2023-02-22T01:06:35;96963.53;;;16.43;61.01
51123;BME280;37162;41.724;13.346;2023-02-22T01:09:01;96957.91;;;16.44;61.25
51123;BME280;37162;41.724;13.346;2023-02-22T01:11:27;96955.47;;;16.43;61.25
51123;BME280;37162;41.724;13.346;2023-02-22T01:13:54;96956.28;;;16.43;61.51
51123;BME280;37162;41.724;13.346;2023-02-22T01:16:19;96954.41;;;16.44;61.69
51123;BME280;37162;41.724;13.346;2023-02-22T01:18:45;96947.19;;;16.44;61.72
51123;BME280;37162;41.724;13.346;2023-02-22T01:21:10;96936.69;;;16.43;61.87
51123;BME280;37162;41.724;13.346;2023-02-22T01:23:36;96942.66;;;16.45;61.79
51123;BME280;37162;41.724;13.346;2023-02-22T01:26:01;96935.13;;;16.35;61.58
51123;BME280;37162;41.724;13.346;2023-02-22T01:28:30;96939.16;;;16.44;61.33
51123;BME280;37162;41.724;13.346;2023-02-22T01:30:56;96930.53;;;16.42;61.11
51123;BME280;37162;41.724;13.346;2023-02-22T01:33:21;96932.75;;;16.45;61.17
51123;BME280;37162;41.724;13.346;2023-02-22T01:35:46;96926.56;;;16.45;61.02
51123;BME280;37162;41.724;13.346;2023-02-22T01:38:14;96925.75;;;16.44;61.25
51123;BME280;37162;41.724;13.346;2023-02-22T01:40:41;96919.31;;;16.45;61.12
51123;BME280;37162;41.724;13.346;2023-02-22T01:43:36;96913.38;;;16.43;61.12
51123;BME280;37162;41.724;13.346;2023-02-22T01:46:05;96901.59;;;16.44;61.11
51123;BME280;37162;41.724;13.346;2023-02-22T01:48:35;96905.34;;;16.43;61.01
51123;BME280;37162;41.724;13.346;2023-02-22T01:53:37;96887.69;;;16.35;61.04
51123;BME280;37162;41.724;13.346;2023-02-22T01:56:04;96891.19;;;16.36;61.16
51123;BME280;37162;41.724;13.346;2023-02-22T01:58:33;96892.97;;;16.42;60.90
51123;BME280;37162;41.724;13.346;2023-02-22T02:00:59;96889.47;;;16.42;61.19
51123;BME280;37162;41.724;13.346;2023-02-22T02:03:29;96890.31;;;16.42;61.10
51123;BME280;37162;41.724;13.346;2023-02-22T02:05:57;96886.78;;;16.42;61.05
51123;BME280;37162;41.724;13.346;2023-02-22T02:11:22;96872.88;;;16.33;61.25
51123;BME280;37162;41.724;13.346;2023-02-22T02:13:51;96872.22;;;16.38;61.30
51123;BME280;37162;41.724;13.346;2023-02-22T02:16:20;96884.94;;;16.42;61.28
51123;BME280;37162;41.724;13.346;2023-02-22T02:18:46;96881.41;;;16.42;61.53
51123;BME280;37162;41.724;13.346;2023-02-22T02:26:47;96873.59;;;16.40;61.40
51123;BME280;37162;41.724;13.346;2023-02-22T02:32:32;96862.16;;;16.33;61.11
51123;BME280;37162;41.724;13.346;2023-02-22T02:35:40;96871.75;;;16.41;60.94
51123;BME280;37162;41.724;13.346;2023-02-22T02:40:44;96873.84;;;16.39;61.14
51123;BME280;37162;41.724;13.346;2023-02-22T02:45:53;96865.78;;;16.39;61.17
51123;BME280;37162;41.724;13.346;2023-02-22T02:48:20;96864.38;;;16.36;61.09
51123;BME280;37162;41.724;13.346;2023-02-22T02:50:48;96858.19;;;16.35;61.16
51123;BME280;37162;41.724;13.346;2023-02-22T02:53:20;96858.19;;;16.35;61.34
51123;BME280;37162;41.724;13.346;2023-02-22T02:55:46;96848.97;;;16.31;61.60
51123;BME280;37162;41.724;13.346;2023-02-22T02:58:18;96851.78;;;16.36;61.19
51123;BME280;37162;41.724;13.346;2023-02-22T03:00:45;96849.91;;;16.37;61.25
51123;BME280;37162;41.724;13.346;2023-02-22T03:11:33;96858.81;;;16.38;61.16
51123;BME280;37162;41.724;13.346;2023-02-22T03:14:24;96854.25;;;16.38;61.31
51123;BME280;37162;41.724;13.346;2023-02-22T03:17:03;96846.41;;;16.36;61.36
51123;BME280;37162;41.724;13.346;2023-02-22T03:19:39;96854.25;;;16.38;61.64
51123;BME280;37162;41.724;13.346;2023-02-22T03:22:13;96853.44;;;16.38;61.91
51123;BME280;37162;41.724;13.346;2023-02-22T03:24:54;96857.50;;;16.40;61.94
51123;BME280;37162;41.724;13.346;2023-02-22T03:27:31;96847.09;;;16.32;61.88
51123;BME280;37162;41.724;13.346;2023-02-22T03:30:02;96862.06;;;16.40;61.67
51123;BME280;37162;41.724;13.346;2023-02-22T03:32:36;96857.75;;;16.39;61.44
51123;BME280;37162;41.724;13.346;2023-02-22T03:35:08;96859.38;;;16.40;61.27
51123;BME280;37162;41.724;13.346;2023-02-22T03:37:40;96862.06;;;16.40;61.19
51123;BME280;37162;41.724;13.346;2023-02-22T03:40:13;96862.06;;;16.40;61.41
51123;BME280;37162;41.724;13.346;2023-02-22T03:42:46;96862.06;;;16.40;61.32
51123;BME280;37162;41.724;13.346;2023-02-22T03:45:14;96854.94;;;16.33;61.12
51123;BME280;37162;41.724;13.346;2023-02-22T03:47:47;96874.41;;;16.41;61.30
51123;BME280;37162;41.724;13.346;2023-02-22T03:50:20;96868.25;;;16.40;61.14
51123;BME280;37162;41.724;13.346;2023-02-22T03:52:49;96871.97;;;16.39;61.08
51123;BME280;37162;41.724;13.346;2023-02-22T03:55:15;96871.38;;;16.37;61.21
51123;BME280;37162;41.724;13.346;2023-02-22T03:57:46;96874.41;;;16.41;60.99
51123;BME280;37162;41.724;13.346;2023-02-22T04:00:15;96875.47;;;16.40;61.13
51123;BME280;37162;41.724;13.346;2023-02-22T04:02:42;96867.66;;;16.38;60.95
51123;BME280;37162;41.724;13.346;2023-02-22T04:05:08;96873.84;;;16.39;61.01
51123;BME280;37162;41.724;13.346;2023-02-22T04:07:33;96863.13;;;16.39;60.95
51123;BME280;37162;41.724;13.346;2023-02-22T04:09:59;96864.97;;;16.38;61.03
51123;BME280;37162;41.724;13.346;2023-02-22T04:12:26;96873.84;;;16.39;60.94
51123;BME280;37162;41.724;13.346;2023-02-22T04:14:52;96865.78;;;16.39;60.93
51123;BME280;37162;41.724;13.346;2023-02-22T04:17:17;96852.94;;;16.29;61.25
51123;BME280;37162;41.724;13.346;2023-02-22T04:19:43;96864.59;;;16.34;61.34
51123;BME280;37162;41.724;13.346;2023-02-22T04:22:10;96856.81;;;16.33;61.48
51123;BME280;37162;41.724;13.346;2023-02-22T04:24:35;96870.53;;;16.36;61.69
51123;BME280;37162;41.724;13.346;2023-02-22T04:27:01;96869.53;;;16.38;61.45
51123;BME280;37162;41.724;13.346;2023-02-22T04:29:28;96867.97;;;16.30;61.41
51123;BME280;37162;41.724;13.346;2023-02-22T04:31:53;96872.66;;;16.34;61.31
51123;BME280;37162;41.724;13.346;2023-02-22T04:34:18;96857.25;;;16.30;60.95
51123;BME280;37162;41.724;13.346;2023-02-22T04:36:44;96860.88;;;16.35;60.97
51123;BME280;37162;41.724;13.346;2023-02-22T04:39:10;96861.69;;;16.36;60.73
51123;BME280;37162;41.724;13.346;2023-02-22T04:41:35;96862.75;;;16.35;60.85
51123;BME280;37162;41.724;13.346;2023-02-22T04:44:01;96867.88;;;16.36;60.86
51123;BME280;37162;41.724;13.346;2023-02-22T04:46:26;96852.31;;;16.27;60.75
51123;BME280;37162;41.724;13.346;2023-02-22T04:48:52;96870.78;;;16.35;60.81
51123;BME280;37162;41.724;13.346;2023-02-22T04:51:18;96847.78;;;16.27;60.80
51123;BME280;37162;41.724;13.346;2023-02-22T04:53:44;96865.66;;;16.33;60.97
51123;BME280;37162;41.724;13.346;2023-02-22T04:56:10;96866.47;;;16.34;60.84
51123;BME280;37162;41.724;13.346;2023-02-22T04:58:35;96868.34;;;16.33;60.78
51123;BME280;37162;41.724;13.346;2023-02-22T05:01:01;96861.56;;;16.31;60.99
51123;BME280;37162;41.724;13.346;2023-02-22T05:03:27;96866.69;;;16.32;60.91
51123;BME280;37162;41.724;13.346;2023-02-22T05:05:53;96872.03;;;16.32;60.88
51123;BME280;37162;41.724;13.346;2023-02-22T05:08:18;96871.84;;;16.34;60.84
51123;BME280;37162;41.724;13.346;2023-02-22T05:10:44;96863.19;;;16.32;60.83
51123;BME280;37162;41.724;13.346;2023-02-22T05:13:10;96867.72;;;16.31;60.80
51123;BME280;37162;41.724;13.346;2023-02-22T05:15:35;96870.22;;;16.33;60.86
51123;BME280;37162;41.724;13.346;2023-02-22T05:18:01;96858.16;;;16.24;60.93
51123;BME280;37162;41.724;13.346;2023-02-22T05:20:29;96870.22;;;16.33;60.87
51123;BME280;37162;41.724;13.346;2023-02-22T05:22:57;96859.78;;;16.25;61.04
51123;BME280;37162;41.724;13.346;2023-02-22T05:25:23;96868.34;;;16.33;61.21
51123;BME280;37162;41.724;13.346;2023-02-22T05:27:53;96868.09;;;16.35;61.24
51123;BME280;37162;41.724;13.346;2023-02-22T05:30:21;96870.78;;;16.35;61.45
51123;BME280;37162;41.724;13.346;2023-02-22T05:32:51;96841.31;;;16.17;61.85
51123;BME280;37162;41.724;13.346;2023-02-22T05:35:18;96869.97;;;16.34;61.61
51123;BME280;37162;41.724;13.346;2023-02-22T05:37:44;96857.69;;;16.27;61.49
51123;BME280;37162;41.724;13.346;2023-02-22T05:40:10;96870.78;;;16.35;61.21
51123;BME280;37162;41.724;13.346;2023-02-22T05:42:36;96867.28;;;16.34;60.70
51123;BME280;37162;41.724;13.346;2023-02-22T05:45:02;96865.44;;;16.35;60.83
51123;BME280;37162;41.724;13.346;2023-02-22T05:47:27;96860.97;;;16.29;60.87
51123;BME280;37162;41.724;13.346;2023-02-22T05:49:53;96867.28;;;16.34;60.83
51123;BME280;37162;41.724;13.346;2023-02-22T05:52:18;96865.66;;;16.33;60.79
51123;BME280;37162;41.724;13.346;2023-02-22T05:54:44;96872.66;;;16.34;60.71
51123;BME280;37162;41.724;13.346;2023-02-22T05:57:09;96874.72;;;16.32;60.68
51123;BME280;37162;41.724;13.346;2023-02-22T05:59:34;96869.16;;;16.34;60.92
51123;BME280;37162;41.724;13.346;2023-02-22T06:02:00;96876.38;;;16.33;60.77
51123;BME280;37162;41.724;13.346;2023-02-22T06:04:25;96874.72;;;16.32;60.75
51123;BME280;37162;41.724;13.346;2023-02-22T06:06:52;96876.81;;;16.30;60.24
51123;BME280;37162;41.724;13.346;2023-02-22T06:09:17;96884.63;;;16.32;60.81
51123;BME280;37162;41.724;13.346;2023-02-22T06:11:43;96864.78;;;16.21;60.61
51123;BME280;37162;41.724;13.346;2023-02-22T06:14:08;96874.16;;;16.30;60.83
51123;BME280;37162;41.724;13.346;2023-02-22T06:16:33;96863.97;;;16.21;60.61
51123;BME280;37162;41.724;13.346;2023-02-22T06:18:59;96889.41;;;16.30;60.58
51123;BME280;37162;41.724;13.346;2023-02-22T06:21:24;96888.59;;;16.29;60.69
51123;BME280;37162;41.724;13.346;2023-02-22T06:23:51;96898.28;;;16.30;60.60
51123;BME280;37162;41.724;13.346;2023-02-22T06:26:16;96884.97;;;16.24;60.52
51123;BME280;37162;41.724;13.346;2023-02-22T06:28:42;96885.41;;;16.21;60.72
51123;BME280;37162;41.724;13.346;2023-02-22T06:31:07;96901.19;;;16.29;60.71
51123;BME280;37162;41.724;13.346;2023-02-22T06:33:32;96901.19;;;16.29;60.72
51123;BME280;37162;41.724;13.346;2023-02-22T06:35:58;96904.69;;;16.29;60.60
51123;BME280;37162;41.724;13.346;2023-02-22T06:38:25;96901.41;;;16.27;60.47
51123;BME280;37162;41.724;13.346;2023-02-22T06:40:51;96917.28;;;16.29;60.44
51123;BME280;37162;41.724;13.346;2023-02-22T06:43:20;96913.78;;;16.28;60.46
51123;BME280;37162;41.724;13.346;2023-02-22T06:45:45;96913.78;;;16.28;60.36
51123;BME280;37162;41.724;13.346;2023-02-22T06:48:11;96912.13;;;16.27;60.50
51123;BME280;37162;41.724;13.346;2023-02-22T06:50:37;96922.03;;;16.27;60.43
51123;BME280;37162;41.724;13.346;2023-02-22T06:53:03;96913.16;;;16.26;60.32
51123;BME280;37162;41.724;13.346;2023-02-22T06:55:30;96910.72;;;16.25;60.58
51123;BME280;37162;41.724;13.346;2023-02-22T06:57:56;96905.13;;;16.26;60.38
51123;BME280;37162;41.724;13.346;2023-02-22T07:00:24;96902.69;;;16.25;60.42
51123;BME280;37162;41.724;13.346;2023-02-22T07:02:50;96913.16;;;16.26;60.57
51123;BME280;37162;41.724;13.346;2023-02-22T07:05:18;96919.56;;;16.25;60.15
51123;BME280;37162;41.724;13.346;2023-02-22T07:07:44;96919.56;;;16.25;60.50
51123;BME280;37162;41.724;13.346;2023-02-22T07:10:18;96915.03;;;16.26;60.47
51123;BME280;37162;41.724;13.346;2023-02-22T07:12:44;96922.25;;;16.25;60.55
51123;BME280;37162;41.724;13.346;2023-02-22T07:15:10;96910.56;;;16.20;60.59
51123;BME280;37162;41.724;13.346;2023-02-22T07:17:35;96888.09;;;16.02;60.69
51123;BME280;37162;41.724;13.346;2023-02-22T07:20:01;96918.75;;;16.25;60.77
51123;BME280;37162;41.724;13.346;2023-02-22T07:22:26;96922.25;;;16.25;60.61
51123;BME280;37162;41.724;13.346;2023-02-22T07:24:51;96924.94;;;16.25;60.55
51123;BME280;37162;41.724;13.346;2023-02-22T07:27:17;96922.03;;;16.27;60.69
51123;BME280;37162;41.724;13.346;2023-02-22T07:29:43;96910.09;;;16.23;60.55
51123;BME280;37162;41.724;13.346;2023-02-22T07:32:08;96914.88;;;16.21;60.65
51123;BME280;37162;41.724;13.346;2023-02-22T07:34:34;96905.59;;;16.23;60.65
51123;BME280;37162;41.724;13.346;2023-02-22T07:37:00;96911.53;;;16.25;60.73
51123;BME280;37162;41.724;13.346;2023-02-22T07:39:25;96914.78;;;16.27;60.62
51123;BME280;37162;41.724;13.346;2023-02-22T07:41:51;96895.75;;;16.17;60.57
51123;BME280;37162;41.724;13.346;2023-02-22T07:44:17;96911.53;;;16.25;60.42
51123;BME280;37162;41.724;13.346;2023-02-22T07:46:46;96915.03;;;16.26;60.37
51123;BME280;37162;41.724;13.346;2023-02-22T07:49:12;96910.47;;;16.26;60.39
51123;BME280;37162;41.724;13.346;2023-02-22T07:51:38;96909.91;;;16.24;60.39
51123;BME280;37162;41.724;13.346;2023-02-22T07:54:03;96906.16;;;16.25;60.32
51123;BME280;37162;41.724;13.346;2023-02-22T07:56:29;96904.31;;;16.26;60.33
51123;BME280;37162;41.724;13.346;2023-02-22T07:58:54;96902.53;;;16.20;60.30
51123;BME280;37162;41.724;13.346;2023-02-22T08:01:20;96907.00;;;16.26;60.46
51123;BME280;37162;41.724;13.346;2023-02-22T08:03:45;96902.69;;;16.25;60.32
51123;BME280;37162;41.724;13.346;2023-02-22T08:06:12;96903.50;;;16.25;60.42
51123;BME280;37162;41.724;13.346;2023-02-22T08:08:37;96893.69;;;16.19;60.48
51123;BME280;37162;41.724;13.346;2023-02-22T08:11:03;96903.50;;;16.25;60.47
51123;BME280;37162;41.724;13.346;2023-02-22T08:13:29;96902.69;;;16.25;60.41
51123;BME280;37162;41.724;13.346;2023-02-22T08:15:55;96903.50;;;16.25;60.61
51123;BME280;37162;41.724;13.346;2023-02-22T08:18:23;96897.75;;;16.22;60.46
51123;BME280;37162;41.724;13.346;2023-02-22T08:20:50;96897.31;;;16.25;60.66
51123;BME280;37162;41.724;13.346;2023-02-22T08:23:17;96902.69;;;16.25;60.42
51123;BME280;37162;41.724;13.346;2023-02-22T08:25:43;96901.72;;;16.19;60.41
51123;BME280;37162;41.724;13.346;2023-02-22T08:28:11;96900.66;;;16.20;60.51
51123;BME280;37162;41.724;13.346;2023-02-22T08:30:38;96904.75;;;16.23;60.54
51123;BME280;37162;41.724;13.346;2023-02-22T08:33:04;96906.41;;;16.24;60.48
51123;BME280;37162;41.724;13.346;2023-02-22T08:35:31;96902.31;;;16.21;60.43
51123;BME280;37162;41.724;13.346;2023-02-22T08:38:00;96909.09;;;16.24;60.61
51123;BME280;37162;41.724;13.346;2023-02-22T08:40:28;96901.88;;;16.24;60.54
51123;BME280;37162;41.724;13.346;2023-02-22T08:42:55;96902.91;;;16.23;60.49
51123;BME280;37162;41.724;13.346;2023-02-22T08:45:21;96907.44;;;16.23;60.43
51123;BME280;37162;41.724;13.346;2023-02-22T08:47:46;96905.34;;;16.25;60.58
51123;BME280;37162;41.724;13.346;2023-02-22T08:50:26;96906.84;;;16.21;60.57
51123;BME280;37162;41.724;13.346;2023-02-22T08:52:53;96908.28;;;16.23;60.47
51123;BME280;37162;41.724;13.346;2023-02-22T08:55:21;96911.97;;;16.22;60.10
51123;BME280;37162;41.724;13.346;2023-02-22T08:57:47;96900.72;;;16.14;60.40
51123;BME280;37162;41.724;13.346;2023-02-22T09:00:13;96912.78;;;16.23;60.31
51123;BME280;37162;41.724;13.346;2023-02-22T09:02:40;96908.47;;;16.22;60.49
51123;BME280;37162;41.724;13.346;2023-02-22T09:05:08;96911.16;;;16.22;60.51
51123;BME280;37162;41.724;13.346;2023-02-22T09:07:34;96894.56;;;16.13;60.36
51123;BME280;37162;41.724;13.346;2023-02-22T09:09:59;96903.13;;;16.22;60.54
51123;BME280;37162;41.724;13.346;2023-02-22T09:12:25;96895.38;;;16.14;60.92
51123;BME280;37162;41.724;13.346;2023-02-22T09:14:50;96903.78;;;16.17;61.00
51123;BME280;37162;41.724;13.346;2023-02-22T09:17:19;96904.59;;;16.18;60.73
51123;BME280;37162;41.724;13.346;2023-02-22T09:19:44;96906.03;;;16.20;60.57
51123;BME280;37162;41.724;13.346;2023-02-22T09:22:10;96904.97;;;16.21;60.44
51123;BME280;37162;41.724;13.346;2023-02-22T09:24:35;96894.56;;;16.13;60.20
51123;BME280;37162;41.724;13.346;2023-02-22T09:27:01;96899.72;;;16.15;60.33
51123;BME280;37162;41.724;13.346;2023-02-22T09:29:29;96907.66;;;16.21;60.21
51123;BME280;37162;41.724;13.346;2023-02-22T09:31:55;96902.53;;;16.20;60.29
51123;BME280;37162;41.724;13.346;2023-02-22T09:34:22;96902.31;;;16.21;60.34
51123;BME280;37162;41.724;13.346;2023-02-22T09:36:54;96893.53;;;16.14;60.34
51123;BME280;37162;41.724;13.346;2023-02-22T09:39:20;96903.94;;;16.22;60.25
51123;BME280;37162;41.724;13.346;2023-02-22T09:43:07;96897.63;;;16.17;60.33
51123;BME280;37162;41.724;13.346;2023-02-22T09:45:14;96904.53;;;16.24;60.33
51123;BME280;37162;41.724;13.346;2023-02-22T09:47:48;96893.53;;;16.14;60.25
51123;BME280;37162;41.724;13.346;2023-02-22T09:50:22;96898.38;;;16.24;60.38
51123;BME280;37162;41.724;13.346;2023-02-22T09:55:33;96895.69;;;16.24;60.39
51123;BME280;37162;41.724;13.346;2023-02-22T09:58:23;96898.13;;;16.25;60.08
51123;BME280;37162;41.724;13.346;2023-02-22T10:00:55;96900.81;;;16.25;60.25
51123;BME280;37162;41.724;13.346;2023-02-22T10:03:35;96892.88;;;16.19;60.29
51123;BME280;37162;41.724;13.346;2023-02-22T10:06:09;96897.91;;;16.27;60.29
51123;BME280;37162;41.724;13.346;2023-02-22T10:08:35;96897.91;;;16.27;60.16
51123;BME280;37162;41.724;13.346;2023-02-22T10:24:46;96875.91;;;16.36;60.06
51123;BME280;37162;41.724;13.346;2023-02-22T10:27:31;96837.00;;;16.16;59.71
51123;BME280;37162;41.724;13.346;2023-02-22T10:30:04;96869.81;;;16.48;59.74
51123;BME280;37162;41.724;13.346;2023-02-22T10:32:43;96865.75;;;16.57;59.57
51123;BME280;37162;41.724;13.346;2023-02-22T10:35:21;96869.16;;;16.64;59.51
51123;BME280;37162;41.724;13.346;2023-02-22T10:37:49;96856.91;;;16.68;59.38
51123;BME280;37162;41.724;13.346;2023-02-22T10:40:20;96856.41;;;16.78;59.31
51123;BME280;37162;41.724;13.346;2023-02-22T10:42:48;96848.72;;;16.81;59.66
51123;BME280;37162;41.724;13.346;2023-02-22T10:45:33;96845.47;;;16.91;59.50
51123;BME280;37162;41.724;13.346;2023-02-22T10:48:07;96853.63;;;16.96;59.17
51123;BME280;37162;41.724;13.346;2023-02-22T10:50:38;96838.72;;;17.00;58.82
51123;BME280;37162;41.724;13.346;2023-02-22T10:53:06;96841.97;;;17.02;58.67
51123;BME280;37162;41.724;13.346;2023-02-22T10:55:31;96828.91;;;17.06;58.54
51123;BME280;37162;41.724;13.346;2023-02-22T10:58:05;96833.84;;;17.09;58.40
51123;BME280;37162;41.724;13.346;2023-02-22T11:00:36;96823.66;;;17.11;58.19
51123;BME280;37162;41.724;13.346;2023-02-22T11:03:22;96815.16;;;17.14;57.92
51123;BME280;37162;41.724;13.346;2023-02-22T11:05:48;96806.03;;;17.15;57.91
51123;BME280;37162;41.724;13.346;2023-02-22T11:10:53;96797.19;;;17.15;57.84
51123;BME280;37162;41.724;13.346;2023-02-22T11:13:38;96799.16;;;17.19;57.77
51123;BME280;37162;41.724;13.346;2023-02-22T11:16:34;96796.47;;;17.19;57.52
51123;BME280;37162;41.724;13.346;2023-02-22T11:21:30;96791.34;;;17.18;57.82
51123;BME280;37162;41.724;13.346;2023-02-22T11:24:06;96771.50;;;17.07;57.89
51123;BME280;37162;41.724;13.346;2023-02-22T11:27:02;96786.69;;;17.13;57.91
51123;BME280;37162;41.724;13.346;2023-02-22T11:29:31;96789.00;;;17.09;57.85
51123;BME280;37162;41.724;13.346;2023-02-22T11:32:02;96779.53;;;17.07;57.47
51123;BME280;37162;41.724;13.346;2023-02-22T11:34:33;96778.16;;;17.04;57.62
51123;BME280;37162;41.724;13.346;2023-02-22T11:40:21;96780.47;;;17.01;57.45
51123;BME280;37162;41.724;13.346;2023-02-22T11:43:06;96776.97;;;17.00;57.42
51123;BME280;37162;41.724;13.346;2023-02-22T11:45:37;96765.53;;;16.93;57.64
51123;BME280;37162;41.724;13.346;2023-02-22T11:48:05;96759.25;;;16.99;57.71
51123;BME280;37162;41.724;13.346;2023-02-22T11:51:18;96765.44;;;17.00;58.11
51123;BME280;37162;41.724;13.346;2023-02-22T11:53:31;96762.50;;;17.01;57.92
51123;BME280;37162;41.724;13.346;2023-02-22T11:56:44;96753.63;;;17.01;58.14
51123;BME280;37162;41.724;13.346;2023-02-22T12:07:52;96741.03;;;17.01;57.75
51123;BME280;37162;41.724;13.346;2023-02-22T12:13:15;96731.94;;;17.02;57.42
51123;BME280;37162;41.724;13.346;2023-02-22T12:18:24;96733.34;;;17.05;57.67
51123;BME280;37162;41.724;13.346;2023-02-22T12:20:56;96726.91;;;17.06;57.57
51123;BME280;37162;41.724;13.346;2023-02-22T12:26:34;96726.91;;;17.06;57.90
51123;BME280;37162;41.724;13.346;2023-02-22T12:32:08;96725.28;;;17.05;57.83
51123;BME280;37162;41.724;13.346;2023-02-22T12:34:39;96722.84;;;17.03;57.71
51123;BME280;37162;41.724;13.346;2023-02-22T12:37:12;96725.84;;;17.07;57.63
51123;BME280;37162;41.724;13.346;2023-02-22T12:39:52;96717.69;;;17.02;57.84
51123;BME280;37162;41.724;13.346;2023-02-22T12:42:44;96726.09;;;17.05;57.73
51123;BME280;37162;41.724;13.346;2023-02-22T12:45:19;96715.00;;;17.02;57.71
51123;BME280;37162;41.724;13.346;2023-02-22T12:47:56;96717.47;;;17.03;57.75
51123;BME280;37162;41.724;13.346;2023-02-22T12:50:28;96716.44;;;17.04;57.83
51123;BME280;37162;41.724;13.346;2023-02-22T12:53:16;96704.53;;;17.00;57.76
51123;BME280;37162;41.724;13.346;2023-02-22T12:55:59;96700.53;;;17.03;58.04
51123;BME280;37162;41.724;13.346;2023-02-22T12:58:34;96699.59;;;16.97;58.47
51123;BME280;37162;41.724;13.346;2023-02-22T13:01:06;96705.34;;;17.01;58.64
51123;BME280;37162;41.724;13.346;2023-02-22T13:03:43;96696.00;;;16.92;59.01
51123;BME280;37162;41.724;13.346;2023-02-22T13:06:20;96704.41;;;16.95;58.93
51123;BME280;37162;41.724;13.346;2023-02-22T13:15:08;96669.97;;;16.69;59.15
51123;BME280;37162;41.724;13.346;2023-02-22T13:17:45;96700.91;;;16.83;59.39
51123;BME280;37162;41.724;13.346;2023-02-22T13:25:43;96690.88;;;16.78;59.20
51123;BME280;37162;41.724;13.346;2023-02-22T13:28:27;96690.28;;;16.76;59.40
51123;BME280;37162;41.724;13.346;2023-02-22T13:34:32;96677.44;;;16.67;59.61
51123;BME280;37162;41.724;13.346;2023-02-22T13:42:37;96683.75;;;16.72;59.63
51123;BME280;37162;41.724;13.346;2023-02-22T13:45:25;96686.44;;;16.72;59.57
51123;BME280;37162;41.724;13.346;2023-02-22T13:50:51;96684.56;;;16.73;59.80
51123;BME280;37162;41.724;13.346;2023-02-22T13:53:26;96678.00;;;16.69;60.01
51123;BME280;37162;41.724;13.346;2023-02-22T13:55:56;96679.22;;;16.73;60.37
51123;BME280;37162;41.724;13.346;2023-02-22T13:58:23;96681.66;;;16.74;60.59
51123;BME280;37162;41.724;13.346;2023-02-22T14:00:55;96667.28;;;16.69;60.97
51123;BME280;37162;41.724;13.346;2023-02-22T14:05:52;96680.25;;;16.72;60.85
51123;BME280;37162;41.724;13.346;2023-02-22T14:13:11;96672.63;;;16.69;60.74
51123;BME280;37162;41.724;13.346;2023-02-22T14:18:23;96656.44;;;16.64;60.87
51123;BME280;37162;41.724;13.346;2023-02-22T14:21:10;96664.97;;;16.72;60.81
51123;BME280;37162;41.724;13.346;2023-02-22T14:23:39;96676.53;;;16.73;60.57
51123;BME280;37162;41.724;13.346;2023-02-22T14:26:23;96674.06;;;16.71;60.89
51123;BME280;37162;41.724;13.346;2023-02-22T14:31:25;96664.38;;;16.70;60.93
51123;BME280;37162;41.724;13.346;2023-02-22T14:36:37;96672.06;;;16.67;60.85
51123;BME280;37162;41.724;13.346;2023-02-22T14:39:19;96677.78;;;16.70;61.02
51123;BME280;37162;41.724;13.346;2023-02-22T14:41:56;96672.06;;;16.67;60.85
51123;BME280;37162;41.724;13.346;2023-02-22T14:44:39;96666.47;;;16.68;61.08
51123;BME280;37162;41.724;13.346;2023-02-22T14:47:12;96669.16;;;16.68;60.86
51123;BME280;37162;41.724;13.346;2023-02-22T14:49:43;96659.81;;;16.59;61.18
51123;BME280;37162;41.724;13.346;2023-02-22T14:52:31;96667.53;;;16.67;61.14
51123;BME280;37162;41.724;13.346;2023-02-22T14:55:19;96669.38;;;16.67;61.00